createdAt,value
2019-06-26T00:01:08.828Z,17.62
2019-06-26T00:03:35.126Z,20.20
2019-06-26T00:06:01.410Z,20.20
2019-06-26T00:08:27.660Z,18.02
2019-06-26T00:10:53.845Z,17.07
2019-06-26T00:13:26.143Z,16.57
2019-06-26T00:15:48.026Z,17.62
2019-06-26T00:18:14.314Z,17.92
2019-06-26T00:20:40.597Z,20.50
2019-06-26T00:23:06.795Z,16.07
2019-06-26T00:25:33.105Z,19.65
2019-06-26T00:27:59.320Z,19.85
2019-06-26T00:30:25.535Z,21.35
2019-06-26T00:32:51.709Z,19.80
2019-06-26T00:35:17.992Z,17.60
2019-06-26T00:37:44.182Z,19.15
2019-06-26T00:40:11.749Z,17.32
2019-06-26T00:42:37.933Z,19.25
2019-06-26T00:45:05.251Z,19.20
2019-06-26T00:47:31.610Z,18.15
2019-06-26T00:49:57.698Z,20.45
2019-06-26T00:52:23.741Z,19.30
2019-06-26T00:54:49.964Z,17.95
2019-06-26T00:57:16.143Z,18.92
2019-06-26T00:59:42.337Z,20.52
2019-06-26T01:02:08.606Z,18.87
2019-06-26T01:04:39.697Z,22.40
2019-06-26T01:07:05.778Z,18.17
2019-06-26T01:09:31.961Z,18.60
2019-06-26T01:11:58.474Z,18.52
2019-06-26T01:14:24.659Z,22.87
2019-06-26T01:16:50.714Z,18.27
2019-06-26T01:19:17.005Z,20.10
2019-06-26T01:21:43.089Z,19.50
2019-06-26T01:24:09.273Z,17.48
2019-06-26T01:26:35.551Z,20.12
2019-06-26T01:29:01.850Z,21.65
2019-06-26T01:31:29.101Z,18.45
2019-06-26T01:33:55.300Z,19.75
2019-06-26T01:36:21.481Z,21.20
2019-06-26T01:38:47.685Z,18.45
2019-06-26T01:41:13.956Z,20.88
2019-06-26T01:43:40.241Z,21.20
2019-06-26T01:46:06.426Z,17.67
2019-06-26T01:48:32.747Z,18.02
2019-06-26T01:50:58.885Z,21.52
2019-06-26T01:53:25.038Z,20.55
2019-06-26T01:55:51.250Z,22.40
2019-06-26T01:58:17.431Z,18.17
2019-06-26T02:00:43.535Z,18.25
2019-06-26T02:03:09.778Z,21.00
2019-06-26T02:05:35.960Z,20.88
2019-06-26T02:08:02.245Z,17.25
2019-06-26T02:10:28.348Z,20.15
2019-06-26T02:12:54.640Z,21.75
2019-06-26T02:15:21.145Z,24.32
2019-06-26T02:17:47.320Z,21.10
2019-06-26T02:20:13.712Z,25.30
2019-06-26T02:22:39.877Z,20.57
2019-06-26T02:25:06.769Z,20.08
2019-06-26T02:27:33.376Z,21.45
2019-06-26T02:29:59.458Z,22.73
2019-06-26T02:32:25.621Z,24.87
2019-06-26T02:34:52.404Z,21.62
2019-06-26T02:37:18.572Z,21.77
2019-06-26T02:39:44.856Z,21.20
2019-06-26T02:42:11.141Z,23.07
2019-06-26T02:44:52.376Z,21.25
2019-06-26T02:47:18.294Z,19.25
2019-06-26T02:49:33.734Z,21.27
2019-06-26T02:51:59.838Z,23.95
2019-06-26T02:54:26.155Z,23.15
2019-06-26T02:56:53.784Z,25.15
2019-06-26T02:59:19.942Z,22.67
2019-06-26T03:01:46.367Z,22.67
2019-06-26T03:04:12.524Z,23.00
2019-06-26T03:06:38.714Z,24.27
2019-06-26T03:09:05.963Z,30.55
2019-06-26T03:11:32.274Z,27.73
2019-06-26T03:13:58.847Z,24.32
2019-06-26T03:16:25.039Z,26.93
2019-06-26T03:18:51.213Z,24.25
2019-06-26T03:21:17.625Z,22.70
2019-06-26T03:23:44.785Z,22.95
2019-06-26T03:26:11.119Z,25.60
2019-06-26T03:28:37.167Z,23.32
2019-06-26T03:31:03.570Z,25.27
2019-06-26T03:33:29.736Z,24.95
2019-06-26T03:35:56.011Z,24.60
2019-06-26T03:38:22.192Z,24.63
2019-06-26T03:40:48.493Z,24.05
2019-06-26T03:43:14.651Z,24.30
2019-06-26T03:45:41.033Z,26.00
2019-06-26T03:48:07.217Z,23.30
2019-06-26T03:50:33.626Z,25.80
2019-06-26T03:52:59.899Z,27.65
2019-06-26T03:55:26.045Z,26.48
2019-06-26T03:57:52.265Z,24.30
2019-06-26T04:00:37.066Z,28.85
2019-06-26T04:03:03.444Z,27.65
2019-06-26T04:05:29.821Z,25.15
2019-06-26T04:07:56.216Z,27.62
2019-06-26T04:10:22.275Z,24.92
2019-06-26T04:12:48.583Z,28.62
2019-06-26T04:15:15.073Z,29.77
2019-06-26T04:17:41.859Z,32.63
2019-06-26T04:20:09.336Z,30.05
2019-06-26T04:22:35.727Z,27.02
2019-06-26T04:25:06.444Z,28.38
2019-06-26T04:27:32.677Z,27.02
2019-06-26T04:29:58.740Z,33.45
2019-06-26T04:32:25.007Z,31.70
2019-06-26T04:34:54.370Z,35.73
2019-06-26T04:37:19.387Z,34.00
2019-06-26T04:39:45.541Z,35.00
2019-06-26T04:42:11.780Z,32.17
2019-06-26T04:44:37.847Z,37.42
2019-06-26T04:47:04.863Z,32.00
2019-06-26T04:49:31.037Z,35.75
2019-06-26T04:51:57.267Z,32.13
2019-06-26T04:54:23.347Z,32.73
2019-06-26T04:56:49.599Z,33.42
2019-06-26T04:59:15.864Z,33.75
2019-06-26T05:01:42.123Z,36.30
2019-06-26T05:04:08.293Z,32.33
2019-06-26T05:06:34.649Z,34.08
2019-06-26T05:09:01.008Z,33.88
2019-06-26T05:11:29.111Z,33.40
2019-06-26T05:13:55.311Z,33.00
2019-06-26T05:16:21.580Z,38.53
2019-06-26T05:18:48.754Z,32.95
2019-06-26T05:21:15.327Z,36.80
2019-06-26T05:23:41.507Z,37.30
2019-06-26T05:26:07.670Z,35.13
2019-06-26T05:28:33.982Z,33.45
2019-06-26T05:31:00.221Z,31.97
2019-06-26T05:33:26.399Z,34.08
2019-06-26T05:35:52.589Z,33.75
2019-06-26T05:38:18.806Z,35.68
2019-06-26T05:40:44.989Z,33.40
2019-06-26T05:43:11.332Z,34.67
2019-06-26T05:45:37.704Z,36.77
2019-06-26T05:48:03.922Z,40.43
2019-06-26T05:50:30.078Z,37.83
2019-06-26T05:52:56.479Z,33.70
2019-06-26T05:55:22.754Z,35.08
2019-06-26T05:57:49.077Z,32.63
2019-06-26T06:00:16.035Z,34.90
2019-06-26T06:02:42.381Z,34.45
2019-06-26T06:05:09.071Z,35.48
2019-06-26T06:07:35.478Z,35.73
2019-06-26T06:10:02.540Z,35.03
2019-06-26T06:12:29.108Z,34.88
2019-06-26T06:14:55.225Z,38.28
2019-06-26T06:17:21.494Z,39.48
2019-06-26T06:19:48.006Z,36.38
2019-06-26T06:22:14.351Z,37.75
2019-06-26T06:24:40.536Z,34.60
2019-06-26T06:27:06.726Z,39.58
2019-06-26T06:29:33.004Z,34.03
2019-06-26T06:31:59.495Z,34.27
2019-06-26T06:34:25.764Z,33.15
2019-06-26T06:36:51.847Z,33.20
2019-06-26T06:39:17.927Z,32.58
2019-06-26T06:41:44.236Z,33.65
2019-06-26T06:44:10.387Z,37.30
2019-06-26T06:46:36.609Z,37.83
2019-06-26T06:49:03.940Z,38.83
2019-06-26T06:51:30.185Z,40.55
2019-06-26T06:53:56.384Z,39.58
2019-06-26T06:56:22.491Z,37.10
2019-06-26T06:58:49.885Z,35.15
2019-06-26T07:01:16.295Z,39.78
2019-06-26T07:03:42.591Z,34.75
2019-06-26T07:06:08.807Z,35.10
2019-06-26T07:08:35.109Z,35.13
2019-06-26T07:11:01.176Z,37.13
2019-06-26T07:13:27.455Z,34.95
2019-06-26T07:15:53.746Z,33.23
2019-06-26T07:18:19.964Z,37.05
2019-06-26T07:20:46.232Z,33.53
2019-06-26T07:23:12.421Z,35.17
2019-06-26T07:25:38.696Z,31.75
2019-06-26T07:28:05.077Z,28.25
2019-06-26T07:30:31.330Z,31.33
2019-06-26T07:32:57.496Z,26.95
2019-06-26T07:35:23.736Z,28.45
2019-06-26T07:37:49.799Z,31.05
2019-06-26T07:40:16.805Z,26.40
2019-06-26T07:42:43.094Z,30.68
2019-06-26T07:45:09.597Z,29.27
2019-06-26T07:47:43.134Z,27.30
2019-06-26T07:50:05.665Z,27.00
2019-06-26T07:52:31.813Z,26.82
2019-06-26T07:54:58.333Z,26.12
2019-06-26T07:57:24.609Z,25.00
2019-06-26T07:59:51.028Z,22.42
2019-06-26T08:02:17.291Z,25.52
2019-06-26T08:04:43.594Z,23.80
2019-06-26T08:07:09.694Z,25.85
2019-06-26T08:09:35.993Z,24.32
2019-06-26T08:12:02.167Z,27.30
2019-06-26T08:14:28.768Z,28.75
2019-06-26T08:16:54.907Z,25.70
2019-06-26T08:19:21.084Z,25.25
2019-06-26T08:21:47.269Z,28.05
2019-06-26T08:24:13.695Z,27.42
2019-06-26T08:26:40.085Z,26.20
2019-06-26T08:29:06.366Z,28.05
2019-06-26T08:31:32.462Z,25.32
2019-06-26T08:33:59.063Z,22.62
2019-06-26T08:36:25.291Z,24.50
2019-06-26T08:38:51.455Z,22.50
2019-06-26T08:41:17.651Z,22.65
2019-06-26T08:43:44.064Z,24.65
2019-06-26T08:46:10.291Z,23.42
2019-06-26T08:48:40.010Z,23.77
2019-06-26T08:51:04.652Z,27.62
2019-06-26T08:53:30.734Z,20.60
2019-06-26T08:55:57.049Z,20.80
2019-06-26T08:58:23.198Z,20.62
2019-06-26T09:00:49.517Z,21.05
2019-06-26T09:03:16.787Z,21.33
2019-06-26T09:05:47.929Z,19.37
2019-06-26T09:08:12.207Z,17.17
2019-06-26T09:10:38.606Z,20.70
2019-06-26T09:13:04.885Z,19.35
2019-06-26T09:15:31.328Z,20.95
2019-06-26T09:17:57.516Z,17.42
2019-06-26T09:20:37.929Z,20.88
2019-06-26T09:23:04.328Z,20.37
2019-06-26T09:25:30.440Z,19.27
2019-06-26T09:27:56.628Z,16.57
2019-06-26T09:30:23.375Z,21.15
2019-06-26T09:32:49.569Z,16.48
2019-06-26T09:35:15.981Z,18.52
2019-06-26T09:37:42.393Z,22.20
2019-06-26T09:40:08.991Z,18.12
2019-06-26T09:42:35.195Z,15.75
2019-06-26T09:45:02.094Z,14.70
2019-06-26T09:47:30.966Z,17.67
2019-06-26T09:49:56.363Z,16.37
2019-06-26T09:52:22.729Z,16.73
2019-06-26T09:54:48.995Z,15.43
2019-06-26T09:57:15.291Z,16.05
2019-06-26T09:59:41.360Z,16.60
2019-06-26T10:02:07.586Z,16.62
2019-06-26T10:04:33.828Z,14.15
2019-06-26T10:07:00.049Z,14.13
2019-06-26T10:09:26.300Z,14.53
2019-06-26T10:11:52.553Z,14.03
2019-06-26T10:14:18.607Z,16.48
2019-06-26T10:16:44.709Z,13.70
2019-06-26T10:19:11.241Z,14.98
2019-06-26T10:21:37.360Z,12.30
2019-06-26T10:24:03.708Z,13.58
2019-06-26T10:26:32.419Z,13.03
2019-06-26T10:28:58.104Z,16.70
2019-06-26T10:31:24.392Z,16.67
2019-06-26T10:33:50.658Z,13.35
2019-06-26T10:36:16.852Z,13.43
2019-06-26T10:38:43.150Z,13.30
2019-06-26T10:41:09.347Z,16.02
2019-06-26T10:43:35.545Z,12.88
2019-06-26T10:46:02.812Z,14.87
2019-06-26T10:48:29.411Z,16.15
2019-06-26T10:50:58.913Z,14.87
2019-06-26T10:53:24.014Z,13.05
2019-06-26T10:55:50.300Z,13.03
2019-06-26T10:58:16.579Z,16.17
2019-06-26T11:00:42.758Z,14.65
2019-06-26T11:03:08.962Z,15.20
2019-06-26T11:05:35.138Z,14.87
2019-06-26T11:08:01.531Z,17.70
2019-06-26T11:10:27.912Z,14.40
2019-06-26T11:12:54.209Z,14.43
2019-06-26T11:15:22.086Z,14.65
2019-06-26T11:17:48.280Z,14.38
2019-06-26T11:20:14.968Z,15.20
2019-06-26T11:22:41.077Z,16.02
2019-06-26T11:25:08.098Z,15.50
2019-06-26T11:27:34.496Z,13.88
2019-06-26T11:30:00.598Z,15.05
2019-06-26T11:32:26.705Z,16.00
2019-06-26T11:34:52.989Z,16.32
2019-06-26T11:37:22.807Z,17.62
2019-06-26T11:39:47.387Z,15.58
2019-06-26T11:42:13.625Z,16.62
2019-06-26T11:44:40.015Z,15.98
2019-06-26T11:47:06.231Z,17.90
2019-06-26T11:49:32.605Z,17.65
2019-06-26T11:51:58.945Z,16.30
2019-06-26T11:54:25.576Z,16.57
2019-06-26T11:56:51.889Z,17.15
2019-06-26T11:59:18.255Z,18.10
2019-06-26T12:01:44.333Z,15.03
2019-06-26T12:04:10.430Z,14.10
2019-06-26T12:06:36.691Z,15.98
2019-06-26T12:09:06.009Z,16.07
2019-06-26T12:11:32.289Z,17.48
2019-06-26T12:13:59.682Z,16.90
2019-06-26T12:16:25.744Z,17.60
2019-06-26T12:18:51.949Z,15.28
2019-06-26T12:21:18.246Z,18.75
2019-06-26T12:23:44.337Z,16.90
2019-06-26T12:26:10.799Z,22.60
2019-06-26T12:28:37.239Z,21.10
2019-06-26T12:31:03.582Z,19.85
2019-06-26T12:33:29.772Z,19.20
2019-06-26T12:35:55.975Z,19.12
2019-06-26T12:38:22.192Z,17.92
2019-06-26T12:40:48.486Z,19.77
2019-06-26T12:43:15.128Z,18.23
2019-06-26T12:45:41.446Z,18.07
2019-06-26T12:48:07.735Z,20.65
2019-06-26T12:50:35.971Z,19.75
2019-06-26T12:53:01.943Z,21.73
2019-06-26T12:55:32.603Z,18.45
2019-06-26T12:58:11.917Z,21.48
2019-06-26T13:00:24.588Z,19.90
2019-06-26T13:02:50.881Z,17.57
2019-06-26T13:05:17.377Z,20.35
2019-06-26T13:07:43.687Z,21.02
2019-06-26T13:10:10.926Z,21.62
2019-06-26T13:12:37.141Z,20.55
2019-06-26T13:15:07.127Z,22.48
2019-06-26T13:17:33.501Z,25.82
2019-06-26T13:20:00.827Z,20.77
2019-06-26T13:22:26.990Z,19.82
2019-06-26T13:24:53.344Z,21.40
2019-06-26T13:27:19.489Z,20.97
2019-06-26T13:29:45.937Z,18.65
2019-06-26T13:32:12.099Z,17.48
2019-06-26T13:34:38.489Z,18.52
2019-06-26T13:37:07.310Z,19.98
2019-06-26T13:39:32.944Z,21.23
2019-06-26T13:41:59.225Z,17.32
2019-06-26T13:44:25.541Z,21.73
2019-06-26T13:46:51.640Z,15.90
2019-06-26T13:49:17.719Z,15.80
2019-06-26T13:51:44.057Z,19.32
2019-06-26T13:54:10.556Z,17.40
2019-06-26T13:56:37.045Z,15.95
2019-06-26T13:59:07.143Z,17.70
2019-06-26T14:01:31.749Z,17.32
2019-06-26T14:03:57.829Z,17.12
2019-06-26T14:06:24.040Z,17.70
2019-06-26T14:08:50.392Z,16.20
2019-06-26T14:11:16.601Z,21.20
2019-06-26T14:13:42.678Z,18.32
2019-06-26T14:16:09.084Z,18.48
2019-06-26T14:18:35.308Z,18.62
2019-06-26T14:21:01.710Z,19.85
2019-06-26T14:23:27.975Z,25.97
2019-06-26T14:25:54.154Z,17.62
2019-06-26T14:28:20.427Z,19.12
2019-06-26T14:30:46.660Z,17.32
2019-06-26T14:33:12.757Z,17.17
2019-06-26T14:35:38.875Z,18.48
2019-06-26T14:38:05.268Z,18.15
2019-06-26T14:40:31.394Z,16.05
2019-06-26T14:42:57.518Z,19.15
2019-06-26T14:45:23.638Z,15.43
2019-06-26T14:47:49.818Z,16.77
2019-06-26T14:50:17.588Z,16.12
2019-06-26T14:52:45.958Z,16.37
2019-06-26T14:55:11.942Z,16.50
2019-06-26T14:57:38.210Z,15.83
2019-06-26T15:00:05.510Z,16.55
2019-06-26T15:02:32.092Z,13.62
2019-06-26T15:04:58.406Z,17.42
2019-06-26T15:07:24.634Z,14.87
2019-06-26T15:09:50.827Z,15.00
2019-06-26T15:12:17.008Z,18.52
2019-06-26T15:14:43.706Z,16.85
2019-06-26T15:17:10.052Z,17.10
2019-06-26T15:19:36.414Z,16.00
2019-06-26T15:22:02.959Z,15.23
2019-06-26T15:24:29.241Z,17.92
2019-06-26T15:26:55.594Z,14.50
2019-06-26T15:29:21.761Z,17.98
2019-06-26T15:31:48.070Z,14.05
2019-06-26T15:34:14.920Z,14.03
2019-06-26T15:36:41.203Z,17.05
2019-06-26T15:39:08.209Z,15.00
2019-06-26T15:41:34.522Z,19.62
2019-06-26T15:44:00.723Z,15.35
2019-06-26T15:46:26.956Z,14.13
2019-06-26T15:48:53.179Z,16.87
2019-06-26T15:51:19.586Z,15.65
2019-06-26T15:53:45.756Z,16.07
2019-06-26T15:56:11.966Z,17.62
2019-06-26T15:58:38.257Z,19.65
2019-06-26T16:01:04.664Z,21.77
2019-06-26T16:03:32.734Z,16.85
2019-06-26T16:05:59.052Z,17.50
2019-06-26T16:08:25.251Z,17.73
2019-06-26T16:10:52.078Z,20.70
2019-06-26T16:13:18.267Z,21.75
2019-06-26T16:15:45.360Z,17.82
2019-06-26T16:18:16.199Z,17.92
2019-06-26T16:20:42.393Z,18.40
2019-06-26T16:23:09.832Z,17.85
2019-06-26T16:25:35.994Z,20.65
2019-06-26T16:28:05.710Z,21.15
2019-06-26T16:30:30.393Z,19.48
2019-06-26T16:32:57.081Z,18.35
2019-06-26T16:35:23.383Z,18.55
2019-06-26T16:37:49.486Z,17.45
2019-06-26T16:40:16.302Z,17.62
2019-06-26T16:42:42.588Z,17.77
2019-06-26T16:45:08.975Z,18.65
2019-06-26T16:47:35.093Z,19.27
2019-06-26T16:50:03.270Z,17.32
2019-06-26T16:52:29.516Z,19.52
2019-06-26T16:54:55.614Z,21.15
2019-06-26T16:57:22.025Z,18.20
2019-06-26T16:59:48.211Z,16.90
2019-06-26T17:02:14.403Z,17.67
2019-06-26T17:04:40.739Z,17.60
2019-06-26T17:07:07.002Z,17.75
2019-06-26T17:09:33.418Z,18.02
2019-06-26T17:11:59.615Z,16.27
2019-06-26T17:14:25.859Z,18.40
2019-06-26T17:16:52.069Z,17.40
2019-06-26T17:19:18.672Z,16.97
2019-06-26T17:21:45.163Z,17.40
2019-06-26T17:24:11.465Z,16.75
2019-06-26T17:26:37.544Z,15.48
2019-06-26T17:29:03.830Z,17.70
2019-06-26T17:31:30.033Z,16.50
2019-06-26T17:33:56.136Z,17.67
2019-06-26T17:36:22.435Z,15.38
2019-06-26T17:38:48.934Z,16.00
2019-06-26T17:41:15.119Z,15.53
2019-06-26T17:43:41.340Z,14.95
2019-06-26T17:46:07.632Z,14.95
2019-06-26T17:48:33.862Z,14.73
2019-06-26T17:51:00.140Z,14.07
2019-06-26T17:53:26.474Z,15.28
2019-06-26T17:55:52.863Z,16.30
2019-06-26T17:58:19.172Z,15.23
2019-06-26T18:00:45.458Z,18.37
2019-06-26T18:03:11.849Z,19.02
2019-06-26T18:05:40.448Z,17.30
2019-06-26T18:08:06.693Z,16.73
2019-06-26T18:10:32.902Z,16.93
2019-06-26T18:12:59.128Z,15.40
2019-06-26T18:15:25.743Z,15.75
2019-06-26T18:17:52.006Z,14.20
2019-06-26T18:20:18.522Z,15.72
2019-06-26T18:22:44.848Z,13.65
2019-06-26T18:25:16.443Z,13.70
2019-06-26T18:27:41.026Z,15.95
2019-06-26T18:30:09.430Z,17.60
2019-06-26T18:32:35.613Z,17.17
2019-06-26T18:35:05.416Z,19.17
2019-06-26T18:37:31.591Z,14.75
2019-06-26T18:39:57.909Z,17.62
2019-06-26T18:42:24.122Z,23.98
2019-06-26T18:44:50.353Z,15.72
2019-06-26T18:47:16.640Z,16.42
2019-06-26T18:49:42.837Z,16.90
2019-06-26T18:52:09.079Z,17.15
2019-06-26T18:54:35.407Z,18.42
2019-06-26T18:57:01.519Z,16.87
2019-06-26T18:59:27.641Z,16.50
2019-06-26T19:01:54.222Z,15.85
2019-06-26T19:04:22.441Z,16.00
2019-06-26T19:06:48.696Z,16.37
2019-06-26T19:09:14.974Z,13.68
2019-06-26T19:11:41.231Z,15.75
2019-06-26T19:14:07.588Z,15.63
2019-06-26T19:16:36.272Z,15.00
2019-06-26T19:19:02.087Z,13.08
2019-06-26T19:21:28.432Z,15.58
2019-06-26T19:24:09.187Z,12.65
2019-06-26T19:26:22.970Z,13.50
2019-06-26T19:28:49.323Z,14.00
2019-06-26T19:31:15.537Z,16.67
2019-06-26T19:33:45.444Z,13.13
2019-06-26T19:36:10.352Z,13.78
2019-06-26T19:38:36.625Z,12.50
2019-06-26T19:41:03.450Z,16.50
2019-06-26T19:43:30.876Z,14.20
2019-06-26T19:45:57.294Z,10.85
2019-06-26T19:48:23.657Z,14.60
2019-06-26T19:50:49.782Z,11.60
2019-06-26T19:53:16.109Z,17.00
2019-06-26T19:55:42.433Z,17.60
2019-06-26T19:58:08.691Z,16.50
2019-06-26T20:00:34.996Z,14.03
2019-06-26T20:03:01.208Z,12.75
2019-06-26T20:05:27.508Z,16.23
2019-06-26T20:07:53.828Z,12.47
2019-06-26T20:10:20.279Z,11.97
2019-06-26T20:12:46.597Z,12.65
2019-06-26T20:15:13.032Z,10.80
2019-06-26T20:17:39.447Z,13.85
2019-06-26T20:20:07.361Z,12.88
2019-06-26T20:22:33.875Z,12.43
2019-06-26T20:25:00.291Z,17.02
2019-06-26T20:27:26.547Z,13.10
2019-06-26T20:29:52.843Z,15.78
2019-06-26T20:32:18.972Z,13.18
2019-06-26T20:34:45.088Z,15.30
2019-06-26T20:37:11.214Z,14.23
2019-06-26T20:39:37.390Z,13.68
2019-06-26T20:42:03.707Z,12.53
2019-06-26T20:44:29.882Z,14.25
2019-06-26T20:46:56.041Z,16.12
2019-06-26T20:49:22.106Z,14.75
2019-06-26T20:51:48.307Z,16.30
2019-06-26T20:54:14.493Z,14.18
2019-06-26T20:56:40.697Z,18.62
2019-06-26T20:59:06.813Z,15.20
2019-06-26T21:01:33.044Z,15.32
2019-06-26T21:03:59.356Z,14.45
2019-06-26T21:06:25.560Z,14.35
2019-06-26T21:08:51.865Z,13.75
2019-06-26T21:11:18.167Z,18.05
2019-06-26T21:13:45.350Z,14.55
2019-06-26T21:16:11.551Z,13.15
2019-06-26T21:18:37.829Z,15.10
2019-06-26T21:21:03.914Z,13.53
2019-06-26T21:23:30.005Z,16.65
2019-06-26T21:25:56.216Z,16.27
2019-06-26T21:28:22.521Z,19.25
2019-06-26T21:30:49.137Z,13.40
2019-06-26T21:33:15.319Z,17.98
2019-06-26T21:35:41.764Z,13.98
2019-06-26T21:38:08.155Z,16.12
2019-06-26T21:40:34.521Z,17.17
2019-06-26T21:43:01.805Z,12.93
2019-06-26T21:45:27.991Z,15.55
2019-06-26T21:47:54.162Z,11.15
2019-06-26T21:50:20.486Z,15.43
2019-06-26T21:52:48.087Z,15.25
2019-06-26T21:55:14.250Z,13.58
2019-06-26T21:57:58.803Z,15.78
2019-06-26T22:00:44.965Z,19.98
2019-06-26T22:03:29.953Z,14.63
2019-06-26T22:06:13.357Z,15.35
2019-06-26T22:08:57.982Z,15.40
2019-06-26T22:11:24.357Z,14.23
2019-06-26T22:13:50.657Z,13.90
2019-06-26T22:16:17.135Z,15.15
2019-06-26T22:18:43.754Z,15.55
2019-06-26T22:21:09.988Z,18.07
2019-06-26T22:23:36.141Z,14.50
2019-06-26T22:26:03.404Z,14.10
2019-06-26T22:28:29.596Z,15.70
2019-06-26T22:30:55.695Z,13.45
2019-06-26T22:33:22.122Z,15.67
2019-06-26T22:35:48.457Z,16.02
2019-06-26T22:38:14.776Z,19.85
2019-06-26T22:40:40.963Z,16.48
2019-06-26T22:43:07.351Z,17.25
2019-06-26T22:45:33.636Z,17.15
2019-06-26T22:47:59.919Z,14.38
2019-06-26T22:50:26.097Z,17.10
2019-06-26T22:52:52.210Z,15.90
2019-06-26T22:55:18.350Z,16.25
2019-06-26T22:57:44.629Z,16.00
2019-06-26T23:00:13.670Z,15.68
2019-06-26T23:02:39.946Z,16.62
2019-06-26T23:05:06.343Z,14.13
2019-06-26T23:07:32.730Z,18.40
2019-06-26T23:09:58.924Z,14.75
2019-06-26T23:12:25.020Z,14.38
2019-06-26T23:14:51.530Z,15.60
2019-06-26T23:17:17.601Z,14.55
2019-06-26T23:19:43.804Z,17.92
2019-06-26T23:22:09.972Z,18.80
2019-06-26T23:24:36.158Z,15.98
2019-06-26T23:27:02.362Z,15.18
2019-06-26T23:29:28.561Z,15.87
2019-06-26T23:31:54.673Z,18.82
2019-06-26T23:34:20.873Z,18.85
2019-06-26T23:36:47.064Z,14.60
2019-06-26T23:39:13.161Z,20.27
2019-06-26T23:41:39.342Z,23.00
2019-06-26T23:44:05.605Z,15.53
2019-06-26T23:46:31.686Z,15.75
2019-06-26T23:48:57.754Z,19.60
2019-06-26T23:51:23.865Z,19.05
2019-06-26T23:53:50.080Z,19.02
2019-06-26T23:56:16.232Z,22.30
2019-06-26T23:58:42.314Z,16.10
